עמוד ראשי
METAR-TAF:

METAR-TAF

שדות תעופה :

דיורבל, סנגל

קו רוחב: 14-39N, קו אורך: 016-14W, גובה: 7מטר

תצפית מזג אוויר נוכחית

הדו"ח נערך לפני 37דקות, בשעה 00:00 UTC
רוח 8קשר מכיוון מערב
טמפרטורת 28 צלסיוס
לחות 79%
לחץ 1013 hPa
ראות 10 קילומטר או יותר
ללא עננים שבסיסם נמוך מ 5000 רגל או קומולונימבוס

METAR: GOOD 130000Z 26008KT CAVOK 28/24 Q1013

זמן: 00:37 (00:37 UTC)


TAF: חסר

תצפיות ותחזיות מזג אוויר לגבי יותר מ- 4,000 שדות תעופה ברחבי העולם. דוחות METAR ו- TAF.

התחנות הזמינות מסומנות בנקודות צהובות ואדומות על גבי המפה.

העבר את העכבר לנקודה הצבעונית על מנת לראות את שם התחנה.

לאחר מכן, לחץ כדי לראות את תוכן ואת תחזיות מזג האוויר.

כדי לשנות את המפה: לחץ על הכפתורים הירוקים עם הפלוס השחור כדי להתקרב; על הכפתור הירוק עם המקף כדי להתרחק; או בחיצים הירוקים למפות סמוכות.


METAR-TAF: